sensor_id;sensor_type;location;lat;lon;timestamp;temperature;humidity
71117;SHT31;58775;46.992;9.518;2023-09-30T00:00:24;18.74;84.30
71117;SHT31;58775;46.992;9.518;2023-09-30T00:02:25;18.54;85.13
71117;SHT31;58775;46.992;9.518;2023-09-30T00:04:25;18.44;85.05
71117;SHT31;58775;46.992;9.518;2023-09-30T00:06:28;18.46;85.35
71117;SHT31;58775;46.992;9.518;2023-09-30T00:08:29;18.28;85.85
71117;SHT31;58775;46.992;9.518;2023-09-30T00:10:30;18.13;86.23
71117;SHT31;58775;46.992;9.518;2023-09-30T00:12:31;18.12;85.82
71117;SHT31;58775;46.992;9.518;2023-09-30T00:14:32;18.08;85.99
71117;SHT31;58775;46.992;9.518;2023-09-30T00:16:33;18.05;85.07
71117;SHT31;58775;46.992;9.518;2023-09-30T00:18:33;18.10;85.57
71117;SHT31;58775;46.992;9.518;2023-09-30T00:20:34;18.17;85.30
71117;SHT31;58775;46.992;9.518;2023-09-30T00:22:35;17.95;86.61
71117;SHT31;58775;46.992;9.518;2023-09-30T00:24:36;18.01;86.42
71117;SHT31;58775;46.992;9.518;2023-09-30T00:26:36;17.91;86.34
71117;SHT31;58775;46.992;9.518;2023-09-30T00:28:37;17.77;87.13
71117;SHT31;58775;46.992;9.518;2023-09-30T00:30:38;17.85;86.40
71117;SHT31;58775;46.992;9.518;2023-09-30T00:32:39;17.88;86.78
71117;SHT31;58775;46.992;9.518;2023-09-30T00:34:40;17.68;87.18
71117;SHT31;58775;46.992;9.518;2023-09-30T00:36:41;17.71;87.28
71117;SHT31;58775;46.992;9.518;2023-09-30T00:38:42;17.79;87.40
71117;SHT31;58775;46.992;9.518;2023-09-30T00:40:50;17.78;87.80
71117;SHT31;58775;46.992;9.518;2023-09-30T00:42:51;17.65;88.58
71117;SHT31;58775;46.992;9.518;2023-09-30T00:44:52;17.60;88.78
71117;SHT31;58775;46.992;9.518;2023-09-30T00:46:54;17.57;87.73
71117;SHT31;58775;46.992;9.518;2023-09-30T00:48:59;17.74;84.86
71117;SHT31;58775;46.992;9.518;2023-09-30T00:51:00;17.77;86.11
71117;SHT31;58775;46.992;9.518;2023-09-30T00:53:03;17.78;86.79
71117;SHT31;58775;46.992;9.518;2023-09-30T00:55:04;17.77;87.11
71117;SHT31;58775;46.992;9.518;2023-09-30T00:57:06;17.82;86.75
71117;SHT31;58775;46.992;9.518;2023-09-30T00:59:07;17.89;86.64
71117;SHT31;58775;46.992;9.518;2023-09-30T01:01:09;17.78;87.63
71117;SHT31;58775;46.992;9.518;2023-09-30T01:03:10;17.83;87.39
71117;SHT31;58775;46.992;9.518;2023-09-30T01:05:11;17.67;87.90
71117;SHT31;58775;46.992;9.518;2023-09-30T01:07:13;17.71;87.81
71117;SHT31;58775;46.992;9.518;2023-09-30T01:09:14;17.79;86.71
71117;SHT31;58775;46.992;9.518;2023-09-30T01:11:15;17.61;87.69
71117;SHT31;58775;46.992;9.518;2023-09-30T01:13:20;17.58;88.13
71117;SHT31;58775;46.992;9.518;2023-09-30T01:15:21;17.67;87.86
71117;SHT31;58775;46.992;9.518;2023-09-30T01:17:22;17.64;88.30
71117;SHT31;58775;46.992;9.518;2023-09-30T01:19:23;17.77;87.42
71117;SHT31;58775;46.992;9.518;2023-09-30T01:21:25;17.61;87.99
71117;SHT31;58775;46.992;9.518;2023-09-30T01:23:32;17.65;88.00
71117;SHT31;58775;46.992;9.518;2023-09-30T01:25:34;17.48;88.51
71117;SHT31;58775;46.992;9.518;2023-09-30T01:27:35;17.38;88.88
71117;SHT31;58775;46.992;9.518;2023-09-30T01:29:36;17.45;89.28
71117;SHT31;58775;46.992;9.518;2023-09-30T01:31:38;17.61;87.88
71117;SHT31;58775;46.992;9.518;2023-09-30T01:33:39;17.47;88.34
71117;SHT31;58775;46.992;9.518;2023-09-30T01:35:40;17.42;88.84
71117;SHT31;58775;46.992;9.518;2023-09-30T01:37:41;17.32;89.41
71117;SHT31;58775;46.992;9.518;2023-09-30T01:39:43;17.35;88.05
71117;SHT31;58775;46.992;9.518;2023-09-30T01:41:46;17.42;87.97
71117;SHT31;58775;46.992;9.518;2023-09-30T01:43:49;17.47;87.91
71117;SHT31;58775;46.992;9.518;2023-09-30T01:45:50;17.52;87.94
71117;SHT31;58775;46.992;9.518;2023-09-30T01:47:51;17.62;86.61
71117;SHT31;58775;46.992;9.518;2023-09-30T01:49:53;17.60;87.81
71117;SHT31;58775;46.992;9.518;2023-09-30T01:51:55;17.60;87.56
71117;SHT31;58775;46.992;9.518;2023-09-30T01:53:56;17.45;89.06
71117;SHT31;58775;46.992;9.518;2023-09-30T01:55:57;17.67;87.51
71117;SHT31;58775;46.992;9.518;2023-09-30T01:57:58;17.48;88.49
71117;SHT31;58775;46.992;9.518;2023-09-30T01:59:59;17.50;88.33
71117;SHT31;58775;46.992;9.518;2023-09-30T02:02:00;17.40;89.64
71117;SHT31;58775;46.992;9.518;2023-09-30T02:04:03;17.54;88.76
71117;SHT31;58775;46.992;9.518;2023-09-30T02:06:06;17.48;88.63
71117;SHT31;58775;46.992;9.518;2023-09-30T02:08:06;17.30;89.16
71117;SHT31;58775;46.992;9.518;2023-09-30T02:10:08;17.34;89.91
71117;SHT31;58775;46.992;9.518;2023-09-30T02:12:10;17.32;89.66
71117;SHT31;58775;46.992;9.518;2023-09-30T02:14:11;17.20;89.28
71117;SHT31;58775;46.992;9.518;2023-09-30T02:16:12;17.30;87.67
71117;SHT31;58775;46.992;9.518;2023-09-30T02:18:16;17.17;88.96
71117;SHT31;58775;46.992;9.518;2023-09-30T02:20:18;17.30;89.03
71117;SHT31;58775;46.992;9.518;2023-09-30T02:22:22;17.47;86.75
71117;SHT31;58775;46.992;9.518;2023-09-30T02:24:25;17.37;87.66
71117;SHT31;58775;46.992;9.518;2023-09-30T02:26:25;17.40;87.88
71117;SHT31;58775;46.992;9.518;2023-09-30T02:28:29;17.34;88.49
71117;SHT31;58775;46.992;9.518;2023-09-30T02:30:35;17.27;88.91
71117;SHT31;58775;46.992;9.518;2023-09-30T02:32:40;17.24;89.72
71117;SHT31;58775;46.992;9.518;2023-09-30T02:34:41;17.28;89.66
71117;SHT31;58775;46.992;9.518;2023-09-30T02:36:43;17.37;89.07
71117;SHT31;58775;46.992;9.518;2023-09-30T02:38:44;17.20;89.50
71117;SHT31;58775;46.992;9.518;2023-09-30T02:40:47;17.21;89.66
71117;SHT31;58775;46.992;9.518;2023-09-30T02:42:49;17.13;89.89
71117;SHT31;58775;46.992;9.518;2023-09-30T02:44:50;17.24;89.52
71117;SHT31;58775;46.992;9.518;2023-09-30T02:46:50;17.34;89.03
71117;SHT31;58775;46.992;9.518;2023-09-30T02:48:51;17.11;89.54
71117;SHT31;58775;46.992;9.518;2023-09-30T02:50:54;17.16;89.85
71117;SHT31;58775;46.992;9.518;2023-09-30T02:52:55;17.11;90.31
71117;SHT31;58775;46.992;9.518;2023-09-30T02:54:57;17.00;89.83
71117;SHT31;58775;46.992;9.518;2023-09-30T02:56:59;17.04;89.89
71117;SHT31;58775;46.992;9.518;2023-09-30T02:59:00;17.00;90.00
71117;SHT31;58775;46.992;9.518;2023-09-30T03:01:02;17.06;89.65
71117;SHT31;58775;46.992;9.518;2023-09-30T03:03:03;16.96;90.59
71117;SHT31;58775;46.992;9.518;2023-09-30T03:05:06;17.13;89.54
71117;SHT31;58775;46.992;9.518;2023-09-30T03:07:09;17.11;88.96
71117;SHT31;58775;46.992;9.518;2023-09-30T03:09:11;17.11;89.00
71117;SHT31;58775;46.992;9.518;2023-09-30T03:11:15;17.10;89.13
71117;SHT31;58775;46.992;9.518;2023-09-30T03:13:16;17.03;89.71
71117;SHT31;58775;46.992;9.518;2023-09-30T03:15:20;17.02;90.17
71117;SHT31;58775;46.992;9.518;2023-09-30T03:17:20;16.94;90.49
71117;SHT31;58775;46.992;9.518;2023-09-30T03:19:23;16.91;90.87
71117;SHT31;58775;46.992;9.518;2023-09-30T03:21:24;16.89;91.10
71117;SHT31;58775;46.992;9.518;2023-09-30T03:23:25;16.90;90.31
71117;SHT31;58775;46.992;9.518;2023-09-30T03:25:29;16.81;90.45
71117;SHT31;58775;46.992;9.518;2023-09-30T03:27:31;16.73;91.47
71117;SHT31;58775;46.992;9.518;2023-09-30T03:29:31;16.70;91.47
71117;SHT31;58775;46.992;9.518;2023-09-30T03:31:32;16.63;91.72
71117;SHT31;58775;46.992;9.518;2023-09-30T03:33:34;16.68;91.47
71117;SHT31;58775;46.992;9.518;2023-09-30T03:35:35;16.65;91.90
71117;SHT31;58775;46.992;9.518;2023-09-30T03:37:37;16.79;91.70
71117;SHT31;58775;46.992;9.518;2023-09-30T03:39:38;16.79;91.00
71117;SHT31;58775;46.992;9.518;2023-09-30T03:41:39;16.91;90.28
71117;SHT31;58775;46.992;9.518;2023-09-30T03:43:39;16.93;90.09
71117;SHT31;58775;46.992;9.518;2023-09-30T03:45:43;16.81;91.41
71117;SHT31;58775;46.992;9.518;2023-09-30T03:47:44;16.80;91.18
71117;SHT31;58775;46.992;9.518;2023-09-30T03:49:46;16.75;91.62
71117;SHT31;58775;46.992;9.518;2023-09-30T03:51:48;16.76;91.17
71117;SHT31;58775;46.992;9.518;2023-09-30T03:53:51;16.72;91.78
71117;SHT31;58775;46.992;9.518;2023-09-30T03:55:52;16.66;91.59
71117;SHT31;58775;46.992;9.518;2023-09-30T03:57:52;16.66;92.34
71117;SHT31;58775;46.992;9.518;2023-09-30T03:59:53;16.75;91.90
71117;SHT31;58775;46.992;9.518;2023-09-30T04:01:54;16.72;91.88
71117;SHT31;58775;46.992;9.518;2023-09-30T04:03:55;16.62;92.12
71117;SHT31;58775;46.992;9.518;2023-09-30T04:05:56;16.68;91.79
71117;SHT31;58775;46.992;9.518;2023-09-30T04:07:57;16.75;90.94
71117;SHT31;58775;46.992;9.518;2023-09-30T04:09:58;16.76;91.12
71117;SHT31;58775;46.992;9.518;2023-09-30T04:12:01;16.76;91.48
71117;SHT31;58775;46.992;9.518;2023-09-30T04:14:04;16.84;91.34
71117;SHT31;58775;46.992;9.518;2023-09-30T04:16:04;16.84;90.97
71117;SHT31;58775;46.992;9.518;2023-09-30T04:18:05;16.76;91.61
71117;SHT31;58775;46.992;9.518;2023-09-30T04:20:07;16.73;91.71
71117;SHT31;58775;46.992;9.518;2023-09-30T04:22:16;16.80;91.66
71117;SHT31;58775;46.992;9.518;2023-09-30T04:24:17;16.80;91.43
71117;SHT31;58775;46.992;9.518;2023-09-30T04:26:21;16.83;91.30
71117;SHT31;58775;46.992;9.518;2023-09-30T04:28:22;16.84;91.25
71117;SHT31;58775;46.992;9.518;2023-09-30T04:30:24;16.83;91.13
71117;SHT31;58775;46.992;9.518;2023-09-30T04:32:26;16.73;91.99
71117;SHT31;58775;46.992;9.518;2023-09-30T04:34:28;16.73;92.06
71117;SHT31;58775;46.992;9.518;2023-09-30T04:36:28;16.80;91.61
71117;SHT31;58775;46.992;9.518;2023-09-30T04:38:31;16.73;92.17
71117;SHT31;58775;46.992;9.518;2023-09-30T04:40:32;16.80;91.76
71117;SHT31;58775;46.992;9.518;2023-09-30T04:42:34;16.75;92.25
71117;SHT31;58775;46.992;9.518;2023-09-30T04:44:38;16.76;91.92
71117;SHT31;58775;46.992;9.518;2023-09-30T04:46:39;16.79;91.50
71117;SHT31;58775;46.992;9.518;2023-09-30T04:48:46;16.65;91.56
71117;SHT31;58775;46.992;9.518;2023-09-30T04:50:49;16.53;91.76
71117;SHT31;58775;46.992;9.518;2023-09-30T04:52:51;16.49;92.33
71117;SHT31;58775;46.992;9.518;2023-09-30T04:54:53;16.49;92.67
71117;SHT31;58775;46.992;9.518;2023-09-30T04:56:53;16.51;93.04
71117;SHT31;58775;46.992;9.518;2023-09-30T04:58:55;16.62;92.01
71117;SHT31;58775;46.992;9.518;2023-09-30T05:00:56;16.65;91.37
71117;SHT31;58775;46.992;9.518;2023-09-30T05:02:56;16.66;91.33
71117;SHT31;58775;46.992;9.518;2023-09-30T05:04:59;16.70;91.23
71117;SHT31;58775;46.992;9.518;2023-09-30T05:07:00;16.62;91.82
71117;SHT31;58775;46.992;9.518;2023-09-30T05:09:00;16.63;91.80
71117;SHT31;58775;46.992;9.518;2023-09-30T05:11:01;16.69;91.61
71117;SHT31;58775;46.992;9.518;2023-09-30T05:13:02;16.69;91.21
71117;SHT31;58775;46.992;9.518;2023-09-30T05:15:04;16.68;91.33
71117;SHT31;58775;46.992;9.518;2023-09-30T05:17:06;16.55;91.58
71117;SHT31;58775;46.992;9.518;2023-09-30T05:19:09;16.47;92.35
71117;SHT31;58775;46.992;9.518;2023-09-30T05:21:09;16.47;92.55
71117;SHT31;58775;46.992;9.518;2023-09-30T05:23:10;16.49;92.34
71117;SHT31;58775;46.992;9.518;2023-09-30T05:25:14;16.48;92.49
71117;SHT31;58775;46.992;9.518;2023-09-30T05:27:18;16.51;92.32
71117;SHT31;58775;46.992;9.518;2023-09-30T05:29:19;16.58;92.39
71117;SHT31;58775;46.992;9.518;2023-09-30T05:31:20;16.63;92.04
71117;SHT31;58775;46.992;9.518;2023-09-30T05:33:21;16.60;91.60
71117;SHT31;58775;46.992;9.518;2023-09-30T05:35:23;16.52;92.38
71117;SHT31;58775;46.992;9.518;2023-09-30T05:37:25;16.49;92.66
71117;SHT31;58775;46.992;9.518;2023-09-30T05:39:26;16.51;93.32
71117;SHT31;58775;46.992;9.518;2023-09-30T05:41:29;16.48;93.31
71117;SHT31;58775;46.992;9.518;2023-09-30T05:43:30;16.56;93.02
71117;SHT31;58775;46.992;9.518;2023-09-30T05:45:32;16.59;92.80
71117;SHT31;58775;46.992;9.518;2023-09-30T05:47:36;16.65;92.62
71117;SHT31;58775;46.992;9.518;2023-09-30T05:49:37;16.72;92.24
71117;SHT31;58775;46.992;9.518;2023-09-30T05:51:38;16.76;91.90
71117;SHT31;58775;46.992;9.518;2023-09-30T05:53:39;16.80;91.73
71117;SHT31;58775;46.992;9.518;2023-09-30T05:55:41;16.80;91.35
71117;SHT31;58775;46.992;9.518;2023-09-30T05:57:43;16.76;92.33
71117;SHT31;58775;46.992;9.518;2023-09-30T05:59:44;16.79;92.84
71117;SHT31;58775;46.992;9.518;2023-09-30T06:01:46;16.84;92.24
71117;SHT31;58775;46.992;9.518;2023-09-30T06:03:47;16.90;92.17
71117;SHT31;58775;46.992;9.518;2023-09-30T06:05:48;16.90;91.69
71117;SHT31;58775;46.992;9.518;2023-09-30T06:07:49;16.94;91.14
71117;SHT31;58775;46.992;9.518;2023-09-30T06:09:50;16.87;91.17
71117;SHT31;58775;46.992;9.518;2023-09-30T06:11:51;16.91;91.42
71117;SHT31;58775;46.992;9.518;2023-09-30T06:13:52;16.86;92.16
71117;SHT31;58775;46.992;9.518;2023-09-30T06:15:55;16.80;92.01
71117;SHT31;58775;46.992;9.518;2023-09-30T06:17:56;16.90;91.69
71117;SHT31;58775;46.992;9.518;2023-09-30T06:19:57;16.84;92.86
71117;SHT31;58775;46.992;9.518;2023-09-30T06:22:07;16.80;91.66
71117;SHT31;58775;46.992;9.518;2023-09-30T06:24:08;16.93;92.33
71117;SHT31;58775;46.992;9.518;2023-09-30T06:26:09;17.07;92.12
71117;SHT31;58775;46.992;9.518;2023-09-30T06:28:10;17.14;91.50
71117;SHT31;58775;46.992;9.518;2023-09-30T06:30:13;17.04;92.53
71117;SHT31;58775;46.992;9.518;2023-09-30T06:32:14;17.13;92.59
71117;SHT31;58775;46.992;9.518;2023-09-30T06:34:15;17.23;91.82
71117;SHT31;58775;46.992;9.518;2023-09-30T06:36:17;17.32;91.53
71117;SHT31;58775;46.992;9.518;2023-09-30T06:38:21;17.44;91.26
71117;SHT31;58775;46.992;9.518;2023-09-30T06:40:22;17.47;90.93
71117;SHT31;58775;46.992;9.518;2023-09-30T06:42:24;17.40;91.20
71117;SHT31;58775;46.992;9.518;2023-09-30T06:44:25;17.51;91.29
71117;SHT31;58775;46.992;9.518;2023-09-30T06:46:26;17.58;90.79
71117;SHT31;58775;46.992;9.518;2023-09-30T06:48:27;17.61;90.30
71117;SHT31;58775;46.992;9.518;2023-09-30T06:50:28;17.55;90.13
71117;SHT31;58775;46.992;9.518;2023-09-30T06:52:29;17.60;90.02
71117;SHT31;58775;46.992;9.518;2023-09-30T06:54:33;17.62;90.59
71117;SHT31;58775;46.992;9.518;2023-09-30T06:56:33;17.62;90.76
71117;SHT31;58775;46.992;9.518;2023-09-30T06:58:34;17.62;91.38
71117;SHT31;58775;46.992;9.518;2023-09-30T07:00:36;17.70;91.23
71117;SHT31;58775;46.992;9.518;2023-09-30T07:02:37;17.74;91.13
71117;SHT31;58775;46.992;9.518;2023-09-30T07:04:38;17.79;90.92
71117;SHT31;58775;46.992;9.518;2023-09-30T07:06:39;17.79;90.60
71117;SHT31;58775;46.992;9.518;2023-09-30T07:08:40;17.88;90.36
71117;SHT31;58775;46.992;9.518;2023-09-30T07:10:41;17.89;89.78
71117;SHT31;58775;46.992;9.518;2023-09-30T07:12:43;17.99;89.19
71117;SHT31;58775;46.992;9.518;2023-09-30T07:14:44;18.05;88.86
71117;SHT31;58775;46.992;9.518;2023-09-30T07:16:44;18.12;89.88
71117;SHT31;58775;46.992;9.518;2023-09-30T07:18:45;18.08;90.03
71117;SHT31;58775;46.992;9.518;2023-09-30T07:20:46;18.14;90.04
71117;SHT31;58775;46.992;9.518;2023-09-30T07:22:47;18.22;89.39
71117;SHT31;58775;46.992;9.518;2023-09-30T07:24:48;18.14;89.95
71117;SHT31;58775;46.992;9.518;2023-09-30T07:26:49;18.17;89.57
71117;SHT31;58775;46.992;9.518;2023-09-30T07:28:50;18.49;88.66
71117;SHT31;58775;46.992;9.518;2023-09-30T07:30:50;18.59;87.94
71117;SHT31;58775;46.992;9.518;2023-09-30T07:32:51;18.83;85.81
71117;SHT31;58775;46.992;9.518;2023-09-30T07:34:52;18.83;85.23
71117;SHT31;58775;46.992;9.518;2023-09-30T07:36:53;18.94;85.48
71117;SHT31;58775;46.992;9.518;2023-09-30T07:38:54;19.04;85.31
71117;SHT31;58775;46.992;9.518;2023-09-30T07:40:56;19.19;84.75
71117;SHT31;58775;46.992;9.518;2023-09-30T07:42:57;19.35;84.40
71117;SHT31;58775;46.992;9.518;2023-09-30T07:44:58;19.39;84.10
71117;SHT31;58775;46.992;9.518;2023-09-30T07:46:59;19.48;84.16
71117;SHT31;58775;46.992;9.518;2023-09-30T07:49:00;19.66;82.87
71117;SHT31;58775;46.992;9.518;2023-09-30T07:51:01;19.87;82.20
71117;SHT31;58775;46.992;9.518;2023-09-30T07:53:02;20.14;80.62
71117;SHT31;58775;46.992;9.518;2023-09-30T07:55:03;20.61;79.23
71117;SHT31;58775;46.992;9.518;2023-09-30T07:57:05;20.96;78.35
71117;SHT31;58775;46.992;9.518;2023-09-30T07:59:06;21.35;77.03
71117;SHT31;58775;46.992;9.518;2023-09-30T08:01:09;21.69;74.29
71117;SHT31;58775;46.992;9.518;2023-09-30T08:03:10;22.27;73.06
71117;SHT31;58775;46.992;9.518;2023-09-30T08:05:11;22.51;72.51
71117;SHT31;58775;46.992;9.518;2023-09-30T08:07:12;22.89;70.34
71117;SHT31;58775;46.992;9.518;2023-09-30T08:09:14;22.79;69.19
71117;SHT31;58775;46.992;9.518;2023-09-30T08:11:18;23.28;68.39
71117;SHT31;58775;46.992;9.518;2023-09-30T08:13:22;22.90;70.99
71117;SHT31;58775;46.992;9.518;2023-09-30T08:15:24;23.34;67.94
71117;SHT31;58775;46.992;9.518;2023-09-30T08:17:25;23.86;65.80
71117;SHT31;58775;46.992;9.518;2023-09-30T08:19:26;23.81;66.46
71117;SHT31;58775;46.992;9.518;2023-09-30T08:21:28;24.08;66.11
71117;SHT31;58775;46.992;9.518;2023-09-30T08:23:30;24.40;64.71
71117;SHT31;58775;46.992;9.518;2023-09-30T08:25:31;24.70;63.97
71117;SHT31;58775;46.992;9.518;2023-09-30T08:27:32;24.82;63.86
71117;SHT31;58775;46.992;9.518;2023-09-30T08:29:35;24.72;62.32
71117;SHT31;58775;46.992;9.518;2023-09-30T08:31:36;24.70;64.19
71117;SHT31;58775;46.992;9.518;2023-09-30T08:33:37;24.37;64.03
71117;SHT31;58775;46.992;9.518;2023-09-30T08:35:41;24.18;64.89
71117;SHT31;58775;46.992;9.518;2023-09-30T08:37:42;24.06;64.35
71117;SHT31;58775;46.992;9.518;2023-09-30T08:39:43;24.25;65.55
71117;SHT31;58775;46.992;9.518;2023-09-30T08:41:44;24.40;64.14
71117;SHT31;58775;46.992;9.518;2023-09-30T08:43:46;24.69;64.73
71117;SHT31;58775;46.992;9.518;2023-09-30T08:45:48;24.23;64.46
71117;SHT31;58775;46.992;9.518;2023-09-30T08:47:52;24.63;63.65
71117;SHT31;58775;46.992;9.518;2023-09-30T08:49:54;24.60;62.84
71117;SHT31;58775;46.992;9.518;2023-09-30T08:51:58;25.10;62.52
71117;SHT31;58775;46.992;9.518;2023-09-30T08:54:01;25.23;61.30
71117;SHT31;58775;46.992;9.518;2023-09-30T08:56:05;25.02;61.49
71117;SHT31;58775;46.992;9.518;2023-09-30T08:58:13;25.25;61.38
71117;SHT31;58775;46.992;9.518;2023-09-30T09:00:14;25.61;61.19
71117;SHT31;58775;46.992;9.518;2023-09-30T09:02:15;25.65;60.29
71117;SHT31;58775;46.992;9.518;2023-09-30T09:04:17;25.59;59.23
71117;SHT31;58775;46.992;9.518;2023-09-30T09:06:21;26.23;57.88
71117;SHT31;58775;46.992;9.518;2023-09-30T09:08:25;26.25;60.23
71117;SHT31;58775;46.992;9.518;2023-09-30T09:10:26;26.76;58.17
71117;SHT31;58775;46.992;9.518;2023-09-30T09:12:27;27.31;57.30
71117;SHT31;58775;46.992;9.518;2023-09-30T09:16:52;27.86;55.65
71117;SHT31;58775;46.992;9.518;2023-09-30T09:18:54;27.90;55.05
71117;SHT31;58775;46.992;9.518;2023-09-30T09:21:10;27.94;54.03
71117;SHT31;58775;46.992;9.518;2023-09-30T09:23:14;28.00;55.20
71117;SHT31;58775;46.992;9.518;2023-09-30T09:25:15;28.04;55.26
71117;SHT31;58775;46.992;9.518;2023-09-30T09:27:16;27.92;55.30
71117;SHT31;58775;46.992;9.518;2023-09-30T09:29:25;28.20;54.21
71117;SHT31;58775;46.992;9.518;2023-09-30T09:31:36;28.21;53.84
71117;SHT31;58775;46.992;9.518;2023-09-30T09:33:37;28.04;54.82
71117;SHT31;58775;46.992;9.518;2023-09-30T09:35:38;28.36;53.97
71117;SHT31;58775;46.992;9.518;2023-09-30T09:37:38;28.47;54.59
71117;SHT31;58775;46.992;9.518;2023-09-30T09:39:40;28.54;54.17
71117;SHT31;58775;46.992;9.518;2023-09-30T09:43:51;27.56;57.17
71117;SHT31;58775;46.992;9.518;2023-09-30T09:45:55;27.41;56.15
71117;SHT31;58775;46.992;9.518;2023-09-30T09:47:57;27.05;56.76
71117;SHT31;58775;46.992;9.518;2023-09-30T09:49:58;27.55;54.86
71117;SHT31;58775;46.992;9.518;2023-09-30T09:52:00;28.40;54.91
71117;SHT31;58775;46.992;9.518;2023-09-30T09:54:03;29.02;52.36
71117;SHT31;58775;46.992;9.518;2023-09-30T09:56:09;28.62;55.26
71117;SHT31;58775;46.992;9.518;2023-09-30T09:58:10;29.23;52.70
71117;SHT31;58775;46.992;9.518;2023-09-30T10:00:14;29.02;53.43
71117;SHT31;58775;46.992;9.518;2023-09-30T10:02:16;29.39;53.28
71117;SHT31;58775;46.992;9.518;2023-09-30T10:04:18;29.20;52.86
71117;SHT31;58775;46.992;9.518;2023-09-30T10:06:19;28.79;52.71
71117;SHT31;58775;46.992;9.518;2023-09-30T10:08:27;27.73;56.21
71117;SHT31;58775;46.992;9.518;2023-09-30T10:10:30;27.71;55.99
71117;SHT31;58775;46.992;9.518;2023-09-30T10:12:38;28.27;55.00
71117;SHT31;58775;46.992;9.518;2023-09-30T10:14:39;27.41;56.56
71117;SHT31;58775;46.992;9.518;2023-09-30T10:16:46;28.51;53.93
71117;SHT31;58775;46.992;9.518;2023-09-30T10:19:10;27.89;55.50
71117;SHT31;58775;46.992;9.518;2023-09-30T10:21:11;28.52;53.91
71117;SHT31;58775;46.992;9.518;2023-09-30T10:23:22;27.08;58.25
71117;SHT31;58775;46.992;9.518;2023-09-30T10:25:35;28.13;56.33
71117;SHT31;58775;46.992;9.518;2023-09-30T10:27:37;28.82;54.05
71117;SHT31;58775;46.992;9.518;2023-09-30T10:29:41;28.30;54.29
71117;SHT31;58775;46.992;9.518;2023-09-30T10:31:51;28.47;54.26
71117;SHT31;58775;46.992;9.518;2023-09-30T10:36:02;28.87;55.44
71117;SHT31;58775;46.992;9.518;2023-09-30T10:40:29;27.76;55.25
71117;SHT31;58775;46.992;9.518;2023-09-30T10:42:46;28.71;55.37
71117;SHT31;58775;46.992;9.518;2023-09-30T10:44:47;28.85;53.98
71117;SHT31;58775;46.992;9.518;2023-09-30T10:46:48;28.33;55.03
71117;SHT31;58775;46.992;9.518;2023-09-30T10:48:50;29.03;53.62
71117;SHT31;58775;46.992;9.518;2023-09-30T10:53:08;27.56;58.30
71117;SHT31;58775;46.992;9.518;2023-09-30T10:55:11;26.81;56.60
71117;SHT31;58775;46.992;9.518;2023-09-30T10:57:13;27.21;56.88
71117;SHT31;58775;46.992;9.518;2023-09-30T10:59:23;28.20;55.25
71117;SHT31;58775;46.992;9.518;2023-09-30T11:01:24;27.38;56.76
71117;SHT31;58775;46.992;9.518;2023-09-30T11:03:28;28.14;56.73
71117;SHT31;58775;46.992;9.518;2023-09-30T11:05:29;28.59;54.04
71117;SHT31;58775;46.992;9.518;2023-09-30T11:10:10;28.04;54.92
71117;SHT31;58775;46.992;9.518;2023-09-30T11:12:13;28.45;55.26
71117;SHT31;58775;46.992;9.518;2023-09-30T11:14:26;28.14;54.50
71117;SHT31;58775;46.992;9.518;2023-09-30T11:16:28;28.65;53.75
71117;SHT31;58775;46.992;9.518;2023-09-30T11:18:29;27.22;56.24
71117;SHT31;58775;46.992;9.518;2023-09-30T11:20:30;27.34;57.54
71117;SHT31;58775;46.992;9.518;2023-09-30T11:22:32;27.80;56.46
71117;SHT31;58775;46.992;9.518;2023-09-30T11:24:36;26.84;57.48
71117;SHT31;58775;46.992;9.518;2023-09-30T11:26:38;28.01;54.69
71117;SHT31;58775;46.992;9.518;2023-09-30T11:28:44;28.28;55.07
71117;SHT31;58775;46.992;9.518;2023-09-30T11:30:59;28.75;54.27
71117;SHT31;58775;46.992;9.518;2023-09-30T11:33:00;28.51;54.04
71117;SHT31;58775;46.992;9.518;2023-09-30T11:35:01;28.78;54.45
71117;SHT31;58775;46.992;9.518;2023-09-30T11:37:03;28.58;55.58
71117;SHT31;58775;46.992;9.518;2023-09-30T11:39:04;29.40;52.62
71117;SHT31;58775;46.992;9.518;2023-09-30T11:41:05;29.88;51.52
71117;SHT31;58775;46.992;9.518;2023-09-30T11:43:07;29.81;51.74
71117;SHT31;58775;46.992;9.518;2023-09-30T11:45:21;28.76;55.23
71117;SHT31;58775;46.992;9.518;2023-09-30T11:47:29;28.99;54.67
71117;SHT31;58775;46.992;9.518;2023-09-30T11:49:40;29.03;54.85
71117;SHT31;58775;46.992;9.518;2023-09-30T11:51:44;29.42;53.96
71117;SHT31;58775;46.992;9.518;2023-09-30T11:53:48;28.99;55.46
71117;SHT31;58775;46.992;9.518;2023-09-30T11:55:50;29.43;55.21
71117;SHT31;58775;46.992;9.518;2023-09-30T11:57:55;28.81;56.47
71117;SHT31;58775;46.992;9.518;2023-09-30T11:59:56;28.75;56.88
71117;SHT31;58775;46.992;9.518;2023-09-30T12:01:57;29.15;55.28
71117;SHT31;58775;46.992;9.518;2023-09-30T12:03:59;28.03;57.02
71117;SHT31;58775;46.992;9.518;2023-09-30T12:06:00;27.86;55.95
71117;SHT31;58775;46.992;9.518;2023-09-30T12:08:01;27.50;58.26
71117;SHT31;58775;46.992;9.518;2023-09-30T12:10:02;27.25;61.79
71117;SHT31;58775;46.992;9.518;2023-09-30T12:12:04;27.71;57.12
71117;SHT31;58775;46.992;9.518;2023-09-30T12:14:05;27.56;56.40
71117;SHT31;58775;46.992;9.518;2023-09-30T12:16:06;27.92;55.18
71117;SHT31;58775;46.992;9.518;2023-09-30T12:18:08;27.86;56.63
71117;SHT31;58775;46.992;9.518;2023-09-30T12:20:11;28.89;54.69
71117;SHT31;58775;46.992;9.518;2023-09-30T12:22:15;28.52;55.88
71117;SHT31;58775;46.992;9.518;2023-09-30T12:24:16;28.55;56.48
71117;SHT31;58775;46.992;9.518;2023-09-30T12:26:18;27.79;56.78
71117;SHT31;58775;46.992;9.518;2023-09-30T12:28:20;27.62;59.67
71117;SHT31;58775;46.992;9.518;2023-09-30T12:30:21;26.40;62.66
71117;SHT31;58775;46.992;9.518;2023-09-30T12:32:22;27.59;59.87
71117;SHT31;58775;46.992;9.518;2023-09-30T12:34:24;27.05;62.19
71117;SHT31;58775;46.992;9.518;2023-09-30T12:36:26;27.07;62.16
71117;SHT31;58775;46.992;9.518;2023-09-30T12:38:27;27.83;61.03
71117;SHT31;58775;46.992;9.518;2023-09-30T12:40:28;26.80;65.15
71117;SHT31;58775;46.992;9.518;2023-09-30T12:42:30;26.51;64.76
71117;SHT31;58775;46.992;9.518;2023-09-30T12:44:31;26.43;63.54
71117;SHT31;58775;46.992;9.518;2023-09-30T12:46:31;26.97;60.76
71117;SHT31;58775;46.992;9.518;2023-09-30T12:48:35;27.70;59.17
71117;SHT31;58775;46.992;9.518;2023-09-30T12:50:36;27.29;61.24
71117;SHT31;58775;46.992;9.518;2023-09-30T12:52:36;27.38;57.90
71117;SHT31;58775;46.992;9.518;2023-09-30T12:54:39;26.22;65.06
71117;SHT31;58775;46.992;9.518;2023-09-30T12:56:40;26.46;60.15
71117;SHT31;58775;46.992;9.518;2023-09-30T12:58:41;26.94;58.44
71117;SHT31;58775;46.992;9.518;2023-09-30T13:00:41;26.87;61.82
71117;SHT31;58775;46.992;9.518;2023-09-30T13:02:42;27.45;57.08
71117;SHT31;58775;46.992;9.518;2023-09-30T13:04:44;27.43;59.25